createdAt,value
2023-03-25T00:01:25.771Z,7.90
2023-03-25T00:03:53.820Z,8.40
2023-03-25T00:06:21.393Z,7.70
2023-03-25T00:08:48.778Z,8.10
2023-03-25T00:11:16.647Z,10.70
2023-03-25T00:13:44.684Z,11.60
2023-03-25T00:16:12.496Z,10.00
2023-03-25T00:18:40.237Z,8.60
2023-03-25T00:21:10.944Z,8.70
2023-03-25T00:23:38.935Z,10.80
2023-03-25T00:26:06.720Z,11.70
2023-03-25T00:28:35.917Z,9.10
2023-03-25T00:31:04.502Z,8.30
2023-03-25T00:33:33.562Z,8.40
2023-03-25T00:36:00.782Z,11.10
2023-03-25T00:38:33.533Z,9.90
2023-03-25T00:41:07.231Z,10.00
2023-03-25T00:43:34.302Z,11.10
2023-03-25T00:46:01.823Z,14.40
2023-03-25T00:48:29.882Z,10.90
2023-03-25T00:50:57.054Z,10.20
2023-03-25T00:53:24.293Z,10.70
2023-03-25T00:55:51.665Z,9.70
2023-03-25T00:58:18.883Z,11.40
2023-03-25T01:00:48.303Z,9.80
2023-03-25T01:03:15.645Z,11.00
2023-03-25T01:05:42.820Z,9.30
2023-03-25T01:08:10.576Z,11.50
2023-03-25T01:10:39.268Z,10.90
2023-03-25T01:13:06.409Z,9.60
2023-03-25T01:15:33.714Z,11.80
2023-03-25T01:18:01.119Z,12.90
2023-03-25T01:20:28.153Z,13.60
2023-03-25T01:22:55.428Z,13.30
2023-03-25T01:25:22.696Z,9.40
2023-03-25T01:27:49.665Z,11.20
2023-03-25T01:30:19.613Z,10.00
2023-03-25T01:32:46.835Z,10.60
2023-03-25T01:35:14.127Z,10.50
2023-03-25T01:37:44.257Z,9.90
2023-03-25T01:40:18.626Z,11.20
2023-03-25T01:42:46.635Z,13.40
2023-03-25T01:45:27.005Z,11.30
2023-03-25T01:48:01.351Z,11.10
2023-03-25T01:50:29.494Z,14.80
2023-03-25T01:52:58.343Z,13.40
2023-03-25T01:55:27.621Z,10.40
2023-03-25T01:57:59.813Z,14.90
2023-03-25T02:00:28.200Z,13.80
2023-03-25T02:02:59.014Z,13.60
2023-03-25T02:05:33.372Z,12.40
2023-03-25T02:08:03.367Z,12.70
2023-03-25T02:10:30.757Z,14.20
2023-03-25T02:12:58.090Z,11.20
2023-03-25T02:15:25.538Z,11.60
2023-03-25T02:18:11.968Z,14.10
2023-03-25T02:21:03.272Z,12.80
2023-03-25T02:23:59.252Z,15.70
2023-03-25T02:26:59.913Z,13.80
2023-03-25T02:29:38.342Z,12.30
2023-03-25T02:32:20.085Z,12.90
2023-03-25T02:35:08.284Z,12.50
2023-03-25T02:38:21.835Z,13.70
2023-03-25T02:40:55.809Z,14.60
2023-03-25T02:43:33.069Z,15.10
2023-03-25T02:46:04.913Z,12.80
2023-03-25T02:48:37.078Z,14.50
2023-03-25T02:51:12.389Z,15.70
2023-03-25T02:53:42.778Z,14.20
2023-03-25T02:56:17.033Z,14.30
2023-03-25T03:01:15.029Z,14.30
2023-03-25T03:03:42.712Z,17.40
2023-03-25T03:06:21.653Z,17.50
2023-03-25T03:09:09.342Z,15.40
2023-03-25T03:11:47.496Z,14.80
2023-03-25T03:14:38.680Z,15.50
2023-03-25T03:17:14.052Z,14.00
2023-03-25T03:19:47.480Z,15.40
2023-03-25T03:22:44.259Z,16.30
2023-03-25T03:25:22.076Z,16.30
2023-03-25T03:28:07.100Z,15.20
2023-03-25T03:30:39.776Z,14.40
2023-03-25T03:33:13.540Z,13.10
2023-03-25T03:35:50.403Z,15.60
2023-03-25T03:38:24.056Z,15.80
2023-03-25T03:40:57.353Z,15.80
2023-03-25T03:43:28.143Z,17.90
2023-03-25T03:46:00.647Z,15.40
2023-03-25T03:48:32.048Z,14.70
2023-03-25T03:51:03.255Z,15.60
2023-03-25T03:53:35.223Z,16.60
2023-03-25T03:56:07.366Z,17.30
2023-03-25T03:58:38.112Z,15.80
2023-03-25T04:01:12.796Z,16.20
2023-03-25T04:03:48.736Z,17.30
2023-03-25T04:06:24.813Z,15.30
2023-03-25T04:08:59.927Z,16.50
2023-03-25T04:11:32.639Z,14.40
2023-03-25T04:14:03.888Z,19.30
2023-03-25T04:16:34.711Z,16.40
2023-03-25T04:19:04.197Z,15.60
2023-03-25T04:21:31.271Z,17.00
2023-03-25T04:24:01.357Z,17.30
2023-03-25T04:26:34.213Z,18.30
2023-03-25T04:29:09.569Z,17.00
2023-03-25T04:31:37.896Z,15.50
2023-03-25T04:34:05.640Z,18.00
2023-03-25T04:36:33.767Z,17.10
2023-03-25T04:39:01.403Z,19.10
2023-03-25T04:41:28.845Z,17.20
2023-03-25T04:43:56.386Z,17.80
2023-03-25T04:46:23.951Z,19.00
2023-03-25T04:48:51.108Z,16.70
2023-03-25T04:51:18.461Z,17.70
2023-03-25T04:53:45.933Z,19.20
2023-03-25T04:56:17.207Z,18.30
2023-03-25T04:58:44.762Z,15.00
2023-03-25T05:01:18.033Z,16.20
2023-03-25T05:03:45.127Z,15.30
2023-03-25T05:06:12.443Z,17.90
2023-03-25T05:08:39.665Z,15.50
2023-03-25T05:11:07.369Z,16.30
2023-03-25T05:13:34.574Z,18.30
2023-03-25T05:16:01.929Z,17.00
2023-03-25T05:18:29.096Z,17.00
2023-03-25T05:20:56.913Z,15.70
2023-03-25T05:23:24.916Z,16.90
2023-03-25T05:25:53.803Z,15.60
2023-03-25T05:28:21.537Z,19.20
2023-03-25T05:30:49.614Z,16.20
2023-03-25T05:33:19.040Z,17.20
2023-03-25T05:35:49.822Z,16.20
2023-03-25T05:38:19.099Z,17.50
2023-03-25T05:40:47.638Z,15.20
2023-03-25T05:43:15.981Z,17.20
2023-03-25T05:45:43.342Z,17.20
2023-03-25T05:48:11.199Z,17.20
2023-03-25T05:50:42.956Z,18.40
2023-03-25T05:53:11.480Z,16.90
2023-03-25T05:55:38.779Z,18.00
2023-03-25T05:58:07.014Z,20.30
2023-03-25T06:00:34.995Z,23.30
2023-03-25T06:03:04.574Z,18.30
2023-03-25T06:05:31.738Z,17.10
2023-03-25T06:07:58.780Z,18.70
2023-03-25T06:10:26.330Z,17.30
2023-03-25T06:12:54.409Z,19.50
2023-03-25T06:15:29.361Z,17.90
2023-03-25T06:17:57.231Z,17.40
2023-03-25T06:20:26.344Z,19.60
2023-03-25T06:22:53.549Z,17.90
2023-03-25T06:25:21.861Z,15.40
2023-03-25T06:27:50.450Z,18.20
2023-03-25T06:30:20.537Z,16.30
2023-03-25T06:32:50.817Z,17.00
2023-03-25T06:35:20.629Z,19.30
2023-03-25T06:37:48.480Z,16.00
2023-03-25T06:40:22.511Z,16.20
2023-03-25T06:42:50.067Z,15.50
2023-03-25T06:45:40.030Z,14.30
2023-03-25T06:48:22.859Z,13.00
2023-03-25T06:50:53.464Z,15.90
2023-03-25T06:53:22.967Z,16.10
2023-03-25T06:55:50.502Z,14.80
2023-03-25T06:58:17.857Z,13.90
2023-03-25T07:00:46.041Z,15.20
2023-03-25T07:03:13.794Z,16.70
2023-03-25T07:05:45.341Z,13.20
2023-03-25T07:08:13.314Z,15.30
2023-03-25T07:10:40.611Z,14.10
2023-03-25T07:13:09.855Z,15.50
2023-03-25T07:15:37.565Z,14.70
2023-03-25T07:18:10.178Z,13.70
2023-03-25T07:20:37.746Z,16.90
2023-03-25T07:23:04.849Z,13.00
2023-03-25T07:25:31.927Z,15.80
2023-03-25T07:27:58.952Z,13.50
2023-03-25T07:30:26.085Z,12.90
2023-03-25T07:32:54.700Z,14.30
2023-03-25T07:35:22.079Z,11.00
2023-03-25T07:37:49.212Z,13.90
2023-03-25T07:40:18.202Z,11.50
2023-03-25T07:42:46.602Z,13.30
2023-03-25T07:45:21.864Z,13.40
2023-03-25T07:47:51.343Z,10.90
2023-03-25T07:50:19.305Z,14.30
2023-03-25T07:52:46.799Z,14.70
2023-03-25T07:55:14.577Z,12.50
2023-03-25T07:57:42.171Z,11.70
2023-03-25T08:00:12.888Z,11.50
2023-03-25T08:02:41.889Z,10.30
2023-03-25T08:05:10.024Z,10.80
2023-03-25T08:07:37.742Z,14.10
2023-03-25T08:10:04.988Z,11.40
2023-03-25T08:12:32.144Z,10.50
2023-03-25T08:15:00.184Z,9.50
2023-03-25T08:17:27.308Z,8.60
2023-03-25T08:19:54.676Z,10.30
2023-03-25T08:22:21.858Z,11.30
2023-03-25T08:24:49.409Z,11.70
2023-03-25T08:27:16.888Z,9.50
2023-03-25T08:29:44.104Z,11.00
2023-03-25T08:32:11.797Z,9.80
2023-03-25T08:34:40.261Z,10.80
2023-03-25T08:37:08.662Z,7.80
2023-03-25T08:39:39.842Z,8.40
2023-03-25T08:42:07.500Z,9.40
2023-03-25T08:44:34.585Z,9.60
2023-03-25T08:47:01.916Z,8.80
2023-03-25T08:49:29.051Z,8.30
2023-03-25T08:51:58.207Z,7.80
2023-03-25T08:54:26.203Z,9.10
2023-03-25T08:56:53.435Z,7.80
2023-03-25T08:59:20.806Z,11.30
2023-03-25T09:01:49.482Z,7.20
2023-03-25T09:04:16.896Z,6.40
2023-03-25T09:06:47.740Z,6.90
2023-03-25T09:09:15.854Z,11.00
2023-03-25T09:11:43.134Z,7.90
2023-03-25T09:14:10.506Z,7.80
2023-03-25T09:16:37.627Z,11.60
2023-03-25T09:19:05.019Z,9.70
2023-03-25T09:21:32.131Z,9.90
2023-03-25T09:23:59.782Z,9.10
2023-03-25T09:26:27.278Z,11.20
2023-03-25T09:28:55.639Z,7.90
2023-03-25T09:31:22.808Z,10.60
2023-03-25T09:33:49.915Z,7.70
2023-03-25T09:36:16.960Z,8.30
2023-03-25T09:38:44.243Z,7.60
2023-03-25T09:41:31.296Z,8.20
2023-03-25T09:44:09.502Z,9.30
2023-03-25T09:46:38.038Z,9.60
2023-03-25T09:49:06.087Z,9.10
2023-03-25T09:51:37.181Z,9.20
2023-03-25T09:54:16.416Z,10.50
2023-03-25T09:56:45.422Z,7.60
2023-03-25T09:59:19.173Z,8.40
2023-03-25T10:01:55.286Z,11.20
2023-03-25T10:04:47.855Z,14.20
2023-03-25T10:07:30.815Z,9.60
2023-03-25T10:10:05.070Z,11.80
2023-03-25T10:12:43.635Z,11.50
2023-03-25T10:15:27.441Z,8.50
2023-03-25T10:18:17.084Z,7.60
2023-03-25T10:20:55.805Z,8.60
2023-03-25T10:23:29.181Z,11.40
2023-03-25T10:26:02.172Z,7.80
2023-03-25T10:28:34.378Z,8.50
2023-03-25T10:31:03.377Z,8.80
2023-03-25T10:33:34.472Z,6.40
2023-03-25T10:36:03.434Z,7.70
2023-03-25T10:38:34.556Z,7.30
2023-03-25T10:41:12.841Z,8.20
2023-03-25T10:43:43.343Z,9.40
2023-03-25T10:46:19.806Z,7.20
2023-03-25T10:48:48.334Z,6.60
2023-03-25T10:51:18.096Z,9.90
2023-03-25T10:53:49.806Z,8.50
2023-03-25T10:56:19.002Z,6.90
2023-03-25T10:58:49.648Z,6.50
2023-03-25T11:01:19.575Z,5.80
2023-03-25T11:03:48.178Z,7.20
2023-03-25T11:06:25.564Z,6.40
2023-03-25T11:09:15.497Z,7.70
2023-03-25T11:11:44.744Z,6.00
2023-03-25T11:14:13.564Z,6.60
2023-03-25T11:16:45.211Z,5.50
2023-03-25T11:19:20.770Z,5.90
2023-03-25T11:21:49.958Z,6.50
2023-03-25T11:24:19.214Z,5.10
2023-03-25T11:26:52.555Z,3.60
2023-03-25T11:29:23.008Z,5.80
2023-03-25T11:31:59.364Z,5.70
2023-03-25T11:34:26.577Z,3.90
2023-03-25T11:37:00.871Z,3.40
2023-03-25T11:39:35.837Z,5.20
2023-03-25T11:42:15.948Z,4.60
2023-03-25T11:44:43.282Z,4.20
2023-03-25T11:47:12.807Z,4.10
2023-03-25T11:49:42.473Z,6.20
2023-03-25T11:52:14.645Z,4.90
2023-03-25T11:54:43.671Z,3.70
2023-03-25T11:57:17.515Z,7.30
2023-03-25T11:59:48.934Z,8.30
2023-03-25T12:02:25.517Z,4.90
2023-03-25T12:05:03.341Z,7.10
2023-03-25T12:07:31.578Z,5.90
2023-03-25T12:10:05.548Z,5.60
2023-03-25T12:12:48.842Z,5.80
2023-03-25T12:15:25.019Z,4.60
2023-03-25T12:18:02.885Z,4.70
2023-03-25T12:20:35.220Z,6.10
2023-03-25T12:23:11.920Z,8.10
2023-03-25T12:25:54.829Z,9.20
2023-03-25T12:29:02.801Z,5.10
2023-03-25T12:31:43.096Z,4.70
2023-03-25T12:34:20.320Z,4.80
2023-03-25T12:37:00.178Z,8.10
2023-03-25T12:39:51.324Z,6.30
2023-03-25T12:42:30.734Z,5.00
2023-03-25T12:45:15.494Z,5.40
2023-03-25T12:47:47.924Z,14.00
2023-03-25T12:50:32.302Z,5.10
2023-03-25T12:53:05.330Z,7.70
2023-03-25T12:55:45.512Z,4.50
2023-03-25T12:58:32.481Z,7.20
2023-03-25T13:01:08.559Z,10.50
2023-03-25T13:04:09.876Z,8.30
2023-03-25T13:06:44.920Z,6.20
2023-03-25T13:09:21.519Z,7.30
2023-03-25T13:11:52.358Z,4.60
2023-03-25T13:14:24.594Z,5.10
2023-03-25T13:16:56.936Z,6.60
2023-03-25T13:19:28.293Z,7.70
2023-03-25T13:22:00.734Z,10.90
2023-03-25T13:24:37.020Z,7.30
2023-03-25T13:27:06.339Z,8.50
2023-03-25T13:29:38.363Z,11.10
2023-03-25T13:32:10.712Z,9.00
2023-03-25T13:34:45.711Z,10.80
2023-03-25T13:37:20.098Z,9.90
2023-03-25T13:39:59.206Z,9.30
2023-03-25T13:42:32.997Z,8.50
2023-03-25T13:45:03.850Z,9.00
2023-03-25T13:47:35.882Z,9.70
2023-03-25T13:50:08.614Z,11.80
2023-03-25T13:52:40.966Z,9.30
2023-03-25T13:55:16.396Z,7.30
2023-03-25T13:58:19.811Z,8.00
2023-03-25T14:01:04.511Z,8.20
2023-03-25T14:03:59.856Z,8.70
2023-03-25T14:06:54.076Z,7.00
2023-03-25T14:10:02.399Z,11.50
2023-03-25T14:12:33.633Z,8.60
2023-03-25T14:15:09.286Z,7.20
2023-03-25T14:17:39.780Z,7.40
2023-03-25T14:20:12.666Z,5.20
2023-03-25T14:22:44.108Z,9.40
2023-03-25T14:25:28.491Z,5.80
2023-03-25T14:27:55.881Z,8.70
2023-03-25T14:30:25.930Z,8.50
2023-03-25T14:32:56.103Z,7.70
2023-03-25T14:35:51.603Z,8.10
2023-03-25T14:38:55.405Z,10.30
2023-03-25T14:41:53.102Z,11.40
2023-03-25T14:44:22.903Z,9.90
2023-03-25T14:46:50.539Z,8.60
2023-03-25T14:49:30.311Z,10.30
2023-03-25T14:51:59.726Z,7.50
2023-03-25T14:54:34.853Z,4.20
2023-03-25T14:57:09.292Z,3.50
2023-03-25T14:59:41.544Z,2.60
2023-03-25T15:02:18.068Z,2.20
2023-03-25T15:04:47.524Z,1.20
2023-03-25T15:07:20.097Z,1.90
2023-03-25T15:09:56.149Z,1.20
2023-03-25T15:12:27.518Z,2.00
2023-03-25T15:15:08.478Z,1.10
2023-03-25T15:17:49.307Z,1.90
2023-03-25T15:20:37.155Z,2.70
2023-03-25T15:23:33.115Z,3.10
2023-03-25T15:26:02.265Z,2.40
2023-03-25T15:28:45.326Z,2.50
2023-03-25T15:31:25.053Z,1.50
2023-03-25T15:34:07.169Z,2.60
2023-03-25T15:36:47.223Z,3.00
2023-03-25T15:39:32.714Z,2.70
2023-03-25T15:42:14.425Z,3.70
2023-03-25T15:45:00.625Z,2.90
2023-03-25T15:47:55.211Z,4.60
2023-03-25T15:50:32.536Z,3.40
2023-03-25T15:53:39.471Z,3.50
2023-03-25T15:56:13.573Z,5.40
2023-03-25T15:58:48.528Z,2.60
2023-03-25T16:01:26.049Z,4.80
2023-03-25T16:04:01.388Z,3.70
2023-03-25T16:06:29.927Z,3.90
2023-03-25T16:09:09.367Z,3.30
2023-03-25T16:11:37.638Z,4.10
2023-03-25T16:14:09.480Z,3.30
2023-03-25T16:16:40.843Z,3.20
2023-03-25T16:19:13.786Z,4.30
2023-03-25T16:21:42.115Z,3.80
2023-03-25T16:24:13.889Z,9.20
2023-03-25T16:26:44.548Z,6.60
2023-03-25T16:29:20.465Z,8.40
2023-03-25T16:31:57.723Z,10.60
2023-03-25T16:34:25.454Z,10.80
2023-03-25T16:36:55.051Z,11.70
2023-03-25T16:39:26.390Z,10.00
2023-03-25T16:42:06.525Z,9.70
2023-03-25T16:44:34.502Z,13.50
2023-03-25T16:47:03.341Z,8.90
2023-03-25T16:49:33.835Z,7.50
2023-03-25T16:52:03.453Z,8.10
2023-03-25T16:54:38.861Z,11.00
2023-03-25T16:57:16.584Z,8.50
2023-03-25T16:59:47.670Z,7.40
2023-03-25T17:02:29.116Z,8.90
2023-03-25T17:05:13.540Z,6.00
2023-03-25T17:07:43.484Z,7.30
2023-03-25T17:10:22.615Z,7.10
2023-03-25T17:12:58.032Z,8.00
2023-03-25T17:15:27.359Z,9.00
2023-03-25T17:18:01.016Z,8.60
2023-03-25T17:20:36.107Z,8.60
2023-03-25T17:23:09.303Z,9.30
2023-03-25T17:25:49.592Z,7.90
2023-03-25T17:28:35.409Z,11.20
2023-03-25T17:31:18.383Z,10.30
2023-03-25T17:33:51.100Z,11.90
2023-03-25T17:36:21.376Z,11.60
2023-03-25T17:38:52.186Z,11.60
2023-03-25T17:41:21.717Z,12.00
2023-03-25T17:43:52.318Z,13.60
2023-03-25T17:46:23.404Z,15.10
2023-03-25T17:49:02.306Z,11.60
2023-03-25T17:51:32.811Z,14.40
2023-03-25T17:53:59.971Z,13.90
2023-03-25T17:56:29.468Z,15.30
2023-03-25T17:59:00.123Z,15.20
2023-03-25T18:01:31.472Z,16.50
2023-03-25T18:03:59.339Z,19.90
2023-03-25T18:06:27.422Z,16.20
2023-03-25T18:08:55.050Z,19.20
2023-03-25T18:11:22.820Z,18.50
2023-03-25T18:14:10.401Z,14.70
2023-03-25T18:16:37.803Z,12.90
2023-03-25T18:19:05.287Z,12.70
2023-03-25T18:21:33.392Z,11.20
2023-03-25T18:24:00.644Z,12.40
2023-03-25T18:26:28.534Z,12.60
2023-03-25T18:28:56.043Z,12.50
2023-03-25T18:31:23.695Z,11.90
2023-03-25T18:33:51.561Z,12.40
2023-03-25T18:36:19.846Z,11.50
2023-03-25T18:38:47.825Z,13.10
2023-03-25T18:41:16.218Z,10.80
2023-03-25T18:43:43.835Z,10.10
2023-03-25T18:46:14.238Z,10.20
2023-03-25T18:48:41.632Z,9.90
2023-03-25T18:51:12.418Z,8.80
2023-03-25T18:53:39.643Z,7.00
2023-03-25T18:56:08.337Z,7.60
2023-03-25T18:58:36.768Z,7.20
2023-03-25T19:01:06.081Z,9.50
2023-03-25T19:03:39.147Z,7.30
2023-03-25T19:06:09.320Z,6.10
2023-03-25T19:08:37.062Z,6.00
2023-03-25T19:11:16.560Z,6.00
2023-03-25T19:13:47.951Z,5.40
2023-03-25T19:16:15.309Z,4.90
2023-03-25T19:18:42.374Z,6.10
2023-03-25T19:21:09.927Z,3.50
2023-03-25T19:23:37.197Z,3.50
2023-03-25T19:26:04.556Z,3.50
2023-03-25T19:28:31.885Z,2.80
2023-03-25T19:31:02.397Z,3.20
2023-03-25T19:33:31.400Z,2.30
2023-03-25T19:36:01.500Z,3.10
2023-03-25T19:38:29.766Z,4.50
2023-03-25T19:41:07.234Z,3.30
2023-03-25T19:43:34.525Z,4.60
2023-03-25T19:46:02.253Z,4.30
2023-03-25T19:48:30.753Z,4.20
2023-03-25T19:50:59.058Z,3.80
2023-03-25T19:53:27.334Z,5.10
2023-03-25T19:55:55.785Z,5.20
2023-03-25T19:58:23.869Z,4.70
2023-03-25T20:00:51.618Z,6.30
2023-03-25T20:03:22.316Z,7.90
2023-03-25T20:05:50.308Z,5.00
2023-03-25T20:08:17.513Z,8.80
2023-03-25T20:10:45.040Z,9.60
2023-03-25T20:13:12.788Z,8.30
2023-03-25T20:15:39.885Z,6.70
2023-03-25T20:18:07.493Z,8.30
2023-03-25T20:20:34.914Z,7.30
2023-03-25T20:23:02.075Z,9.50
2023-03-25T20:28:18.472Z,8.70
2023-03-25T20:30:45.641Z,7.60
2023-03-25T20:33:13.132Z,8.20
2023-03-25T20:35:40.358Z,10.00
2023-03-25T20:38:08.574Z,9.60
2023-03-25T20:40:43.943Z,8.10
2023-03-25T20:43:14.569Z,10.00
2023-03-25T20:45:42.486Z,9.30
2023-03-25T20:48:09.917Z,11.30
2023-03-25T20:50:37.205Z,12.50
2023-03-25T20:53:25.944Z,13.50
2023-03-25T20:55:53.355Z,13.30
2023-03-25T20:58:20.650Z,13.10
2023-03-25T21:00:48.627Z,11.70
2023-03-25T21:03:16.822Z,14.80
2023-03-25T21:05:44.636Z,13.70
2023-03-25T21:08:12.227Z,15.50
2023-03-25T21:10:39.446Z,15.70
2023-03-25T21:13:06.994Z,15.40
2023-03-25T21:15:34.397Z,15.00
2023-03-25T21:18:01.590Z,18.30
2023-03-25T21:20:30.148Z,14.00
2023-03-25T21:22:59.244Z,15.00
2023-03-25T21:25:34.447Z,14.60
2023-03-25T21:28:02.443Z,14.80
2023-03-25T21:30:29.909Z,16.70
2023-03-25T21:32:57.083Z,14.80
2023-03-25T21:35:26.507Z,14.30
2023-03-25T21:37:53.591Z,15.60
2023-03-25T21:40:20.916Z,17.10
2023-03-25T21:42:49.059Z,15.40
2023-03-25T21:45:17.753Z,18.70
2023-03-25T21:47:47.515Z,16.00
2023-03-25T21:50:16.641Z,16.60
2023-03-25T21:52:46.717Z,16.80
2023-03-25T21:55:15.524Z,15.20
2023-03-25T21:57:45.321Z,17.90
2023-03-25T22:00:17.035Z,14.80
2023-03-25T22:02:46.139Z,14.50
2023-03-25T22:05:15.128Z,16.50
2023-03-25T22:07:42.719Z,16.70
2023-03-25T22:10:12.378Z,17.50
2023-03-25T22:12:39.770Z,16.40
2023-03-25T22:15:08.329Z,16.90
2023-03-25T22:17:35.932Z,19.30
2023-03-25T22:20:05.394Z,18.30
2023-03-25T22:22:32.596Z,16.60
2023-03-25T22:25:00.041Z,16.90
2023-03-25T22:27:27.385Z,17.70
2023-03-25T22:29:54.500Z,17.00
2023-03-25T22:32:21.832Z,15.00
2023-03-25T22:34:49.273Z,14.80
2023-03-25T22:37:16.634Z,15.80
2023-03-25T22:39:44.267Z,16.10
2023-03-25T22:42:11.392Z,15.10
2023-03-25T22:44:38.326Z,16.10
2023-03-25T22:47:05.635Z,14.30
2023-03-25T22:49:33.431Z,16.20
2023-03-25T22:52:01.367Z,13.90
2023-03-25T22:54:28.958Z,15.30
2023-03-25T22:56:56.092Z,17.00
2023-03-25T22:59:23.344Z,14.90
2023-03-25T23:01:50.657Z,15.50
2023-03-25T23:04:29.156Z,16.10
2023-03-25T23:07:07.218Z,14.40
2023-03-25T23:09:41.399Z,15.80
2023-03-25T23:12:11.921Z,12.10
2023-03-25T23:14:39.573Z,15.00
2023-03-25T23:17:06.680Z,12.90
2023-03-25T23:19:34.344Z,14.10
2023-03-25T23:22:01.688Z,12.60
2023-03-25T23:24:29.181Z,13.80
2023-03-25T23:26:57.024Z,14.70
2023-03-25T23:29:24.362Z,15.10
2023-03-25T23:31:51.621Z,12.80
2023-03-25T23:34:19.650Z,14.10
2023-03-25T23:36:47.912Z,15.20
2023-03-25T23:39:20.083Z,12.60
2023-03-25T23:41:47.188Z,14.00
2023-03-25T23:44:14.322Z,12.30
2023-03-25T23:46:41.981Z,12.10
2023-03-25T23:49:12.364Z,11.90
2023-03-25T23:51:41.566Z,11.20
2023-03-25T23:54:10.632Z,11.60
2023-03-25T23:56:38.864Z,11.50
2023-03-25T23:59:06.520Z,11.70
